sensor_id;sensor_type;location;lat;lon;timestamp;P1;durP1;ratioP1;P2;durP2;ratioP2
5333;SDS011;2689;50.954;7.116;2022-08-19T00:00:06;19.50;;;17.70;;
5333;SDS011;2689;50.954;7.116;2022-08-19T00:02:35;19.57;;;17.57;;
5333;SDS011;2689;50.954;7.116;2022-08-19T00:05:03;18.97;;;17.10;;
5333;SDS011;2689;50.954;7.116;2022-08-19T00:07:31;18.63;;;16.83;;
5333;SDS011;2689;50.954;7.116;2022-08-19T00:09:57;18.47;;;16.70;;
5333;SDS011;2689;50.954;7.116;2022-08-19T00:12:24;21.83;;;17.27;;
5333;SDS011;2689;50.954;7.116;2022-08-19T00:14:52;18.87;;;17.00;;
5333;SDS011;2689;50.954;7.116;2022-08-19T00:17:20;18.50;;;16.80;;
5333;SDS011;2689;50.954;7.116;2022-08-19T00:19:47;20.27;;;17.03;;
5333;SDS011;2689;50.954;7.116;2022-08-19T00:22:14;17.93;;;16.27;;
5333;SDS011;2689;50.954;7.116;2022-08-19T00:24:42;17.70;;;16.10;;
5333;SDS011;2689;50.954;7.116;2022-08-19T00:27:10;18.13;;;16.40;;
5333;SDS011;2689;50.954;7.116;2022-08-19T00:29:37;17.73;;;16.03;;
5333;SDS011;2689;50.954;7.116;2022-08-19T00:32:05;17.60;;;15.90;;
5333;SDS011;2689;50.954;7.116;2022-08-19T00:34:32;16.93;;;15.37;;
5333;SDS011;2689;50.954;7.116;2022-08-19T00:36:59;17.80;;;16.13;;
5333;SDS011;2689;50.954;7.116;2022-08-19T00:39:25;17.50;;;15.83;;
5333;SDS011;2689;50.954;7.116;2022-08-19T00:41:52;18.73;;;16.40;;
5333;SDS011;2689;50.954;7.116;2022-08-19T00:44:19;17.07;;;15.47;;
5333;SDS011;2689;50.954;7.116;2022-08-19T00:46:49;17.30;;;15.80;;
5333;SDS011;2689;50.954;7.116;2022-08-19T00:49:20;18.17;;;16.47;;
5333;SDS011;2689;50.954;7.116;2022-08-19T00:51:50;18.07;;;16.23;;
5333;SDS011;2689;50.954;7.116;2022-08-19T00:54:19;20.53;;;15.87;;
5333;SDS011;2689;50.954;7.116;2022-08-19T00:56:47;16.43;;;14.80;;
5333;SDS011;2689;50.954;7.116;2022-08-19T00:59:31;17.70;;;16.03;;
5333;SDS011;2689;50.954;7.116;2022-08-19T01:02:00;17.43;;;15.77;;
5333;SDS011;2689;50.954;7.116;2022-08-19T01:04:29;17.77;;;16.07;;
5333;SDS011;2689;50.954;7.116;2022-08-19T01:06:55;17.30;;;15.80;;
5333;SDS011;2689;50.954;7.116;2022-08-19T01:09:23;19.10;;;17.30;;
5333;SDS011;2689;50.954;7.116;2022-08-19T01:11:50;18.40;;;16.70;;
5333;SDS011;2689;50.954;7.116;2022-08-19T01:14:17;19.27;;;17.47;;
5333;SDS011;2689;50.954;7.116;2022-08-19T01:16:45;18.30;;;16.53;;
5333;SDS011;2689;50.954;7.116;2022-08-19T01:19:15;18.80;;;17.00;;
5333;SDS011;2689;50.954;7.116;2022-08-19T01:21:54;19.40;;;17.50;;
5333;SDS011;2689;50.954;7.116;2022-08-19T01:24:28;17.83;;;16.23;;
5333;SDS011;2689;50.954;7.116;2022-08-19T01:26:56;19.83;;;17.93;;
5333;SDS011;2689;50.954;7.116;2022-08-19T01:29:23;17.57;;;16.00;;
5333;SDS011;2689;50.954;7.116;2022-08-19T01:31:50;16.67;;;15.07;;
5333;SDS011;2689;50.954;7.116;2022-08-19T01:34:18;17.10;;;15.60;;
5333;SDS011;2689;50.954;7.116;2022-08-19T01:36:45;17.00;;;15.30;;
5333;SDS011;2689;50.954;7.116;2022-08-19T01:39:14;17.00;;;15.23;;
5333;SDS011;2689;50.954;7.116;2022-08-19T01:41:45;17.50;;;15.80;;
5333;SDS011;2689;50.954;7.116;2022-08-19T01:44:12;17.77;;;16.00;;
5333;SDS011;2689;50.954;7.116;2022-08-19T01:46:41;16.37;;;14.83;;
5333;SDS011;2689;50.954;7.116;2022-08-19T01:49:08;17.43;;;15.93;;
5333;SDS011;2689;50.954;7.116;2022-08-19T01:51:36;17.30;;;15.70;;
5333;SDS011;2689;50.954;7.116;2022-08-19T01:54:03;17.70;;;15.93;;
5333;SDS011;2689;50.954;7.116;2022-08-19T01:56:30;17.20;;;15.57;;
5333;SDS011;2689;50.954;7.116;2022-08-19T01:59:00;17.63;;;16.10;;
5333;SDS011;2689;50.954;7.116;2022-08-19T02:01:29;19.10;;;17.20;;
5333;SDS011;2689;50.954;7.116;2022-08-19T02:03:57;17.10;;;15.60;;
5333;SDS011;2689;50.954;7.116;2022-08-19T02:06:25;18.17;;;16.47;;
5333;SDS011;2689;50.954;7.116;2022-08-19T02:08:53;17.67;;;15.87;;
5333;SDS011;2689;50.954;7.116;2022-08-19T02:11:22;18.57;;;16.60;;
5333;SDS011;2689;50.954;7.116;2022-08-19T02:13:51;18.73;;;16.93;;
5333;SDS011;2689;50.954;7.116;2022-08-19T02:16:19;18.90;;;16.93;;
5333;SDS011;2689;50.954;7.116;2022-08-19T02:18:47;19.80;;;17.87;;
5333;SDS011;2689;50.954;7.116;2022-08-19T02:21:14;20.03;;;18.10;;
5333;SDS011;2689;50.954;7.116;2022-08-19T02:23:41;18.20;;;16.60;;
5333;SDS011;2689;50.954;7.116;2022-08-19T02:26:08;18.30;;;16.50;;
5333;SDS011;2689;50.954;7.116;2022-08-19T02:28:34;19.43;;;17.50;;
5333;SDS011;2689;50.954;7.116;2022-08-19T02:31:02;20.43;;;18.47;;
5333;SDS011;2689;50.954;7.116;2022-08-19T02:33:31;20.80;;;18.60;;
5333;SDS011;2689;50.954;7.116;2022-08-19T02:35:57;20.63;;;18.53;;
5333;SDS011;2689;50.954;7.116;2022-08-19T02:38:24;21.23;;;18.90;;
5333;SDS011;2689;50.954;7.116;2022-08-19T02:40:50;19.80;;;17.90;;
5333;SDS011;2689;50.954;7.116;2022-08-19T02:43:18;20.67;;;18.77;;
5333;SDS011;2689;50.954;7.116;2022-08-19T02:45:46;22.20;;;18.73;;
5333;SDS011;2689;50.954;7.116;2022-08-19T02:48:14;20.03;;;17.97;;
5333;SDS011;2689;50.954;7.116;2022-08-19T02:50:43;22.17;;;19.63;;
5333;SDS011;2689;50.954;7.116;2022-08-19T02:53:10;20.53;;;18.63;;
5333;SDS011;2689;50.954;7.116;2022-08-19T02:55:41;20.13;;;18.20;;
5333;SDS011;2689;50.954;7.116;2022-08-19T02:58:09;19.53;;;17.73;;
5333;SDS011;2689;50.954;7.116;2022-08-19T03:00:40;20.43;;;18.57;;
5333;SDS011;2689;50.954;7.116;2022-08-19T03:03:08;19.37;;;16.87;;
5333;SDS011;2689;50.954;7.116;2022-08-19T03:05:35;20.93;;;18.93;;
5333;SDS011;2689;50.954;7.116;2022-08-19T03:08:03;18.40;;;16.67;;
5333;SDS011;2689;50.954;7.116;2022-08-19T03:10:31;25.77;;;18.87;;
5333;SDS011;2689;50.954;7.116;2022-08-19T03:12:58;20.40;;;18.33;;
5333;SDS011;2689;50.954;7.116;2022-08-19T03:15:25;19.50;;;17.50;;
5333;SDS011;2689;50.954;7.116;2022-08-19T03:17:52;19.10;;;17.30;;
5333;SDS011;2689;50.954;7.116;2022-08-19T03:20:19;20.10;;;18.20;;
5333;SDS011;2689;50.954;7.116;2022-08-19T03:22:46;19.10;;;17.20;;
5333;SDS011;2689;50.954;7.116;2022-08-19T03:25:14;19.27;;;17.37;;
5333;SDS011;2689;50.954;7.116;2022-08-19T03:27:41;19.33;;;17.33;;
5333;SDS011;2689;50.954;7.116;2022-08-19T03:30:09;19.97;;;18.13;;
5333;SDS011;2689;50.954;7.116;2022-08-19T03:32:36;20.30;;;18.17;;
5333;SDS011;2689;50.954;7.116;2022-08-19T03:35:03;22.90;;;20.50;;
5333;SDS011;2689;50.954;7.116;2022-08-19T03:37:30;21.47;;;19.37;;
5333;SDS011;2689;50.954;7.116;2022-08-19T03:39:57;22.17;;;19.93;;
5333;SDS011;2689;50.954;7.116;2022-08-19T03:42:25;21.00;;;19.00;;
5333;SDS011;2689;50.954;7.116;2022-08-19T03:44:52;21.57;;;19.27;;
5333;SDS011;2689;50.954;7.116;2022-08-19T03:47:19;21.20;;;19.10;;
5333;SDS011;2689;50.954;7.116;2022-08-19T03:49:46;21.30;;;19.10;;
5333;SDS011;2689;50.954;7.116;2022-08-19T03:52:13;20.60;;;18.57;;
5333;SDS011;2689;50.954;7.116;2022-08-19T03:54:39;23.60;;;19.37;;
5333;SDS011;2689;50.954;7.116;2022-08-19T03:57:06;21.23;;;19.13;;
5333;SDS011;2689;50.954;7.116;2022-08-19T03:59:35;21.80;;;19.67;;
5333;SDS011;2689;50.954;7.116;2022-08-19T04:02:05;21.20;;;19.30;;
5333;SDS011;2689;50.954;7.116;2022-08-19T04:04:34;24.07;;;20.07;;
5333;SDS011;2689;50.954;7.116;2022-08-19T04:07:02;22.80;;;20.23;;
5333;SDS011;2689;50.954;7.116;2022-08-19T04:09:29;20.87;;;18.73;;
5333;SDS011;2689;50.954;7.116;2022-08-19T04:11:56;21.97;;;19.87;;
5333;SDS011;2689;50.954;7.116;2022-08-19T04:14:24;23.47;;;21.10;;
5333;SDS011;2689;50.954;7.116;2022-08-19T04:16:54;20.90;;;18.73;;
5333;SDS011;2689;50.954;7.116;2022-08-19T04:19:22;21.20;;;19.00;;
5333;SDS011;2689;50.954;7.116;2022-08-19T04:21:49;20.53;;;18.63;;
5333;SDS011;2689;50.954;7.116;2022-08-19T04:24:18;22.47;;;20.27;;
5333;SDS011;2689;50.954;7.116;2022-08-19T04:26:45;20.90;;;18.90;;
5333;SDS011;2689;50.954;7.116;2022-08-19T04:29:14;21.67;;;19.47;;
5333;SDS011;2689;50.954;7.116;2022-08-19T04:31:44;22.60;;;20.30;;
5333;SDS011;2689;50.954;7.116;2022-08-19T04:34:13;22.53;;;20.43;;
5333;SDS011;2689;50.954;7.116;2022-08-19T04:36:41;23.27;;;20.83;;
5333;SDS011;2689;50.954;7.116;2022-08-19T04:39:11;22.70;;;20.30;;
5333;SDS011;2689;50.954;7.116;2022-08-19T04:41:39;21.00;;;18.87;;
5333;SDS011;2689;50.954;7.116;2022-08-19T04:44:24;22.30;;;20.10;;
5333;SDS011;2689;50.954;7.116;2022-08-19T04:46:55;21.90;;;19.63;;
5333;SDS011;2689;50.954;7.116;2022-08-19T04:49:23;21.53;;;19.50;;
5333;SDS011;2689;50.954;7.116;2022-08-19T04:51:51;21.43;;;19.33;;
5333;SDS011;2689;50.954;7.116;2022-08-19T04:54:20;21.33;;;19.23;;
5333;SDS011;2689;50.954;7.116;2022-08-19T04:56:48;20.87;;;18.67;;
5333;SDS011;2689;50.954;7.116;2022-08-19T04:59:16;21.90;;;18.00;;
5333;SDS011;2689;50.954;7.116;2022-08-19T05:01:43;20.73;;;18.70;;
5333;SDS011;2689;50.954;7.116;2022-08-19T05:04:15;19.87;;;18.00;;
5333;SDS011;2689;50.954;7.116;2022-08-19T05:06:44;20.70;;;18.70;;
5333;SDS011;2689;50.954;7.116;2022-08-19T05:09:12;20.93;;;18.33;;
5333;SDS011;2689;50.954;7.116;2022-08-19T05:11:39;20.07;;;18.10;;
5333;SDS011;2689;50.954;7.116;2022-08-19T05:14:06;20.47;;;18.47;;
5333;SDS011;2689;50.954;7.116;2022-08-19T05:16:34;19.33;;;17.43;;
5333;SDS011;2689;50.954;7.116;2022-08-19T05:19:01;20.13;;;18.03;;
5333;SDS011;2689;50.954;7.116;2022-08-19T05:21:47;20.40;;;18.40;;
5333;SDS011;2689;50.954;7.116;2022-08-19T05:24:31;21.83;;;19.73;;
5333;SDS011;2689;50.954;7.116;2022-08-19T05:26:59;21.67;;;19.57;;
5333;SDS011;2689;50.954;7.116;2022-08-19T05:29:28;21.37;;;19.30;;
5333;SDS011;2689;50.954;7.116;2022-08-19T05:31:56;21.63;;;19.37;;
5333;SDS011;2689;50.954;7.116;2022-08-19T05:34:24;21.07;;;18.87;;
5333;SDS011;2689;50.954;7.116;2022-08-19T05:36:53;21.80;;;19.80;;
5333;SDS011;2689;50.954;7.116;2022-08-19T05:39:23;21.40;;;19.17;;
5333;SDS011;2689;50.954;7.116;2022-08-19T05:41:51;26.20;;;22.63;;
5333;SDS011;2689;50.954;7.116;2022-08-19T05:44:24;22.93;;;20.53;;
5333;SDS011;2689;50.954;7.116;2022-08-19T05:46:51;27.07;;;21.03;;
5333;SDS011;2689;50.954;7.116;2022-08-19T05:49:20;26.90;;;20.67;;
5333;SDS011;2689;50.954;7.116;2022-08-19T05:51:48;22.80;;;20.57;;
5333;SDS011;2689;50.954;7.116;2022-08-19T05:54:17;23.30;;;20.77;;
5333;SDS011;2689;50.954;7.116;2022-08-19T05:56:44;23.03;;;20.27;;
5333;SDS011;2689;50.954;7.116;2022-08-19T05:59:13;23.10;;;20.90;;
5333;SDS011;2689;50.954;7.116;2022-08-19T06:01:42;26.30;;;23.80;;
5333;SDS011;2689;50.954;7.116;2022-08-19T06:04:10;22.33;;;20.03;;
5333;SDS011;2689;50.954;7.116;2022-08-19T06:06:38;26.77;;;24.17;;
5333;SDS011;2689;50.954;7.116;2022-08-19T06:09:06;24.93;;;22.10;;
5333;SDS011;2689;50.954;7.116;2022-08-19T06:11:38;32.23;;;26.67;;
5333;SDS011;2689;50.954;7.116;2022-08-19T06:14:07;27.67;;;24.80;;
5333;SDS011;2689;50.954;7.116;2022-08-19T06:16:36;27.50;;;24.67;;
5333;SDS011;2689;50.954;7.116;2022-08-19T06:19:05;29.20;;;26.10;;
5333;SDS011;2689;50.954;7.116;2022-08-19T06:21:33;26.07;;;23.40;;
5333;SDS011;2689;50.954;7.116;2022-08-19T06:24:02;23.87;;;21.50;;
5333;SDS011;2689;50.954;7.116;2022-08-19T06:26:30;25.00;;;22.30;;
5333;SDS011;2689;50.954;7.116;2022-08-19T06:28:58;23.40;;;20.90;;
5333;SDS011;2689;50.954;7.116;2022-08-19T06:31:26;26.57;;;23.83;;
5333;SDS011;2689;50.954;7.116;2022-08-19T06:33:53;27.17;;;24.37;;
5333;SDS011;2689;50.954;7.116;2022-08-19T06:36:21;26.67;;;23.97;;
5333;SDS011;2689;50.954;7.116;2022-08-19T06:38:52;28.00;;;25.20;;
5333;SDS011;2689;50.954;7.116;2022-08-19T06:41:19;33.00;;;25.70;;
5333;SDS011;2689;50.954;7.116;2022-08-19T06:43:46;29.80;;;26.60;;
5333;SDS011;2689;50.954;7.116;2022-08-19T06:46:15;35.50;;;29.20;;
5333;SDS011;2689;50.954;7.116;2022-08-19T06:48:43;31.73;;;28.30;;
5333;SDS011;2689;50.954;7.116;2022-08-19T06:51:11;30.87;;;27.63;;
5333;SDS011;2689;50.954;7.116;2022-08-19T06:53:40;29.57;;;26.53;;
5333;SDS011;2689;50.954;7.116;2022-08-19T06:56:12;31.03;;;27.77;;
5333;SDS011;2689;50.954;7.116;2022-08-19T06:58:39;33.80;;;30.40;;
5333;SDS011;2689;50.954;7.116;2022-08-19T07:01:06;39.03;;;30.83;;
5333;SDS011;2689;50.954;7.116;2022-08-19T07:03:36;32.10;;;28.67;;
5333;SDS011;2689;50.954;7.116;2022-08-19T07:06:04;34.07;;;30.37;;
5333;SDS011;2689;50.954;7.116;2022-08-19T07:08:32;34.30;;;30.83;;
5333;SDS011;2689;50.954;7.116;2022-08-19T07:11:01;34.43;;;30.90;;
5333;SDS011;2689;50.954;7.116;2022-08-19T07:13:28;34.80;;;29.77;;
5333;SDS011;2689;50.954;7.116;2022-08-19T07:16:02;31.57;;;27.90;;
5333;SDS011;2689;50.954;7.116;2022-08-19T07:18:29;31.20;;;28.00;;
5333;SDS011;2689;50.954;7.116;2022-08-19T07:21:03;35.90;;;32.00;;
5333;SDS011;2689;50.954;7.116;2022-08-19T07:23:30;32.80;;;29.13;;
5333;SDS011;2689;50.954;7.116;2022-08-19T07:25:57;33.47;;;29.80;;
5333;SDS011;2689;50.954;7.116;2022-08-19T07:28:24;36.80;;;32.13;;
5333;SDS011;2689;50.954;7.116;2022-08-19T07:30:51;33.90;;;30.27;;
5333;SDS011;2689;50.954;7.116;2022-08-19T07:33:18;34.00;;;27.87;;
5333;SDS011;2689;50.954;7.116;2022-08-19T07:35:45;35.73;;;32.00;;
5333;SDS011;2689;50.954;7.116;2022-08-19T07:38:13;34.70;;;31.00;;
5333;SDS011;2689;50.954;7.116;2022-08-19T07:40:40;38.90;;;31.50;;
5333;SDS011;2689;50.954;7.116;2022-08-19T07:43:08;36.37;;;29.17;;
5333;SDS011;2689;50.954;7.116;2022-08-19T07:45:35;38.47;;;29.53;;
5333;SDS011;2689;50.954;7.116;2022-08-19T07:48:02;33.40;;;29.80;;
5333;SDS011;2689;50.954;7.116;2022-08-19T07:50:29;34.07;;;29.33;;
5333;SDS011;2689;50.954;7.116;2022-08-19T07:52:55;32.93;;;29.43;;
5333;SDS011;2689;50.954;7.116;2022-08-19T07:55:24;32.47;;;28.30;;
5333;SDS011;2689;50.954;7.116;2022-08-19T07:57:52;30.47;;;26.87;;
5333;SDS011;2689;50.954;7.116;2022-08-19T08:00:19;31.47;;;27.30;;
5333;SDS011;2689;50.954;7.116;2022-08-19T08:02:46;37.33;;;25.70;;
5333;SDS011;2689;50.954;7.116;2022-08-19T08:05:12;36.07;;;30.20;;
5333;SDS011;2689;50.954;7.116;2022-08-19T08:07:57;34.07;;;27.57;;
5333;SDS011;2689;50.954;7.116;2022-08-19T08:10:43;32.83;;;26.07;;
5333;SDS011;2689;50.954;7.116;2022-08-19T08:13:09;30.30;;;24.97;;
5333;SDS011;2689;50.954;7.116;2022-08-19T08:15:36;31.53;;;27.63;;
5333;SDS011;2689;50.954;7.116;2022-08-19T08:18:04;34.00;;;28.90;;
5333;SDS011;2689;50.954;7.116;2022-08-19T08:20:31;31.93;;;25.93;;
5333;SDS011;2689;50.954;7.116;2022-08-19T08:22:58;30.33;;;22.57;;
5333;SDS011;2689;50.954;7.116;2022-08-19T08:28:30;30.10;;;24.57;;
5333;SDS011;2689;50.954;7.116;2022-08-19T08:30:57;31.33;;;24.67;;
5333;SDS011;2689;50.954;7.116;2022-08-19T08:33:26;25.90;;;22.70;;
5333;SDS011;2689;50.954;7.116;2022-08-19T08:35:54;24.80;;;22.10;;
5333;SDS011;2689;50.954;7.116;2022-08-19T08:38:21;31.33;;;19.23;;
5333;SDS011;2689;50.954;7.116;2022-08-19T08:40:50;32.13;;;22.23;;
5333;SDS011;2689;50.954;7.116;2022-08-19T08:43:24;23.70;;;19.83;;
5333;SDS011;2689;50.954;7.116;2022-08-19T08:45:58;22.30;;;19.90;;
5333;SDS011;2689;50.954;7.116;2022-08-19T08:48:30;22.50;;;18.83;;
5333;SDS011;2689;50.954;7.116;2022-08-19T08:51:03;24.90;;;19.17;;
5333;SDS011;2689;50.954;7.116;2022-08-19T08:53:33;24.40;;;21.10;;
5333;SDS011;2689;50.954;7.116;2022-08-19T08:56:02;23.10;;;19.70;;
5333;SDS011;2689;50.954;7.116;2022-08-19T08:58:33;21.97;;;18.43;;
5333;SDS011;2689;50.954;7.116;2022-08-19T09:01:09;24.93;;;18.67;;
5333;SDS011;2689;50.954;7.116;2022-08-19T09:03:37;23.20;;;20.43;;
5333;SDS011;2689;50.954;7.116;2022-08-19T09:06:07;25.37;;;21.57;;
5333;SDS011;2689;50.954;7.116;2022-08-19T09:08:40;21.57;;;19.27;;
5333;SDS011;2689;50.954;7.116;2022-08-19T09:11:15;22.33;;;17.60;;
5333;SDS011;2689;50.954;7.116;2022-08-19T09:13:52;26.00;;;20.53;;
5333;SDS011;2689;50.954;7.116;2022-08-19T09:16:29;26.53;;;18.67;;
5333;SDS011;2689;50.954;7.116;2022-08-19T09:18:57;31.00;;;23.50;;
5333;SDS011;2689;50.954;7.116;2022-08-19T09:21:28;24.77;;;19.77;;
5333;SDS011;2689;50.954;7.116;2022-08-19T09:23:55;26.47;;;23.50;;
5333;SDS011;2689;50.954;7.116;2022-08-19T09:26:23;23.80;;;21.37;;
5333;SDS011;2689;50.954;7.116;2022-08-19T09:28:52;27.07;;;22.63;;
5333;SDS011;2689;50.954;7.116;2022-08-19T09:31:20;27.77;;;24.77;;
5333;SDS011;2689;50.954;7.116;2022-08-19T09:33:50;33.87;;;28.20;;
5333;SDS011;2689;50.954;7.116;2022-08-19T09:36:21;27.40;;;21.43;;
5333;SDS011;2689;50.954;7.116;2022-08-19T09:38:51;32.00;;;25.47;;
5333;SDS011;2689;50.954;7.116;2022-08-19T09:41:19;23.10;;;20.60;;
5333;SDS011;2689;50.954;7.116;2022-08-19T09:43:48;31.90;;;27.07;;
5333;SDS011;2689;50.954;7.116;2022-08-19T09:46:19;34.80;;;25.97;;
5333;SDS011;2689;50.954;7.116;2022-08-19T09:48:47;30.43;;;27.23;;
5333;SDS011;2689;50.954;7.116;2022-08-19T09:51:17;33.77;;;28.23;;
5333;SDS011;2689;50.954;7.116;2022-08-19T09:53:46;28.47;;;24.97;;
5333;SDS011;2689;50.954;7.116;2022-08-19T09:56:15;30.53;;;27.27;;
5333;SDS011;2689;50.954;7.116;2022-08-19T09:58:43;35.10;;;29.27;;
5333;SDS011;2689;50.954;7.116;2022-08-19T10:01:15;35.37;;;24.83;;
5333;SDS011;2689;50.954;7.116;2022-08-19T10:03:46;38.60;;;29.50;;
5333;SDS011;2689;50.954;7.116;2022-08-19T10:06:15;37.23;;;29.60;;
5333;SDS011;2689;50.954;7.116;2022-08-19T10:08:44;31.70;;;28.30;;
5333;SDS011;2689;50.954;7.116;2022-08-19T10:11:11;36.10;;;30.53;;
5333;SDS011;2689;50.954;7.116;2022-08-19T10:13:41;41.37;;;31.40;;
5333;SDS011;2689;50.954;7.116;2022-08-19T10:16:09;33.23;;;27.90;;
5333;SDS011;2689;50.954;7.116;2022-08-19T10:18:37;29.77;;;25.70;;
5333;SDS011;2689;50.954;7.116;2022-08-19T10:21:07;32.63;;;26.30;;
5333;SDS011;2689;50.954;7.116;2022-08-19T10:23:37;31.07;;;25.80;;
5333;SDS011;2689;50.954;7.116;2022-08-19T10:26:05;30.27;;;24.30;;
5333;SDS011;2689;50.954;7.116;2022-08-19T10:28:33;30.50;;;27.17;;
5333;SDS011;2689;50.954;7.116;2022-08-19T10:31:05;36.90;;;26.27;;
5333;SDS011;2689;50.954;7.116;2022-08-19T10:33:33;28.73;;;23.10;;
5333;SDS011;2689;50.954;7.116;2022-08-19T10:36:01;23.30;;;18.50;;
5333;SDS011;2689;50.954;7.116;2022-08-19T10:38:29;26.00;;;23.20;;
5333;SDS011;2689;50.954;7.116;2022-08-19T10:40:56;27.23;;;19.73;;
5333;SDS011;2689;50.954;7.116;2022-08-19T10:43:23;19.13;;;17.17;;
5333;SDS011;2689;50.954;7.116;2022-08-19T10:45:53;17.77;;;15.90;;
5333;SDS011;2689;50.954;7.116;2022-08-19T10:48:24;17.97;;;16.07;;
5333;SDS011;2689;50.954;7.116;2022-08-19T10:50:50;15.17;;;13.70;;
5333;SDS011;2689;50.954;7.116;2022-08-19T10:53:36;20.13;;;17.83;;
5333;SDS011;2689;50.954;7.116;2022-08-19T10:56:03;17.07;;;15.27;;
5333;SDS011;2689;50.954;7.116;2022-08-19T10:58:46;15.87;;;14.20;;
5333;SDS011;2689;50.954;7.116;2022-08-19T11:01:13;15.80;;;13.40;;
5333;SDS011;2689;50.954;7.116;2022-08-19T11:03:40;16.97;;;14.80;;
5333;SDS011;2689;50.954;7.116;2022-08-19T11:06:07;17.83;;;14.53;;
5333;SDS011;2689;50.954;7.116;2022-08-19T11:08:36;22.90;;;18.53;;
5333;SDS011;2689;50.954;7.116;2022-08-19T11:11:04;15.83;;;13.27;;
5333;SDS011;2689;50.954;7.116;2022-08-19T11:13:32;17.03;;;14.10;;
5333;SDS011;2689;50.954;7.116;2022-08-19T11:16:03;17.20;;;14.53;;
5333;SDS011;2689;50.954;7.116;2022-08-19T11:18:32;15.70;;;14.10;;
5333;SDS011;2689;50.954;7.116;2022-08-19T11:21:12;16.40;;;14.63;;
5333;SDS011;2689;50.954;7.116;2022-08-19T11:23:43;15.20;;;13.07;;
5333;SDS011;2689;50.954;7.116;2022-08-19T11:26:12;21.13;;;14.17;;
5333;SDS011;2689;50.954;7.116;2022-08-19T11:28:38;14.83;;;13.33;;
5333;SDS011;2689;50.954;7.116;2022-08-19T11:31:09;15.30;;;13.67;;
5333;SDS011;2689;50.954;7.116;2022-08-19T11:33:36;14.67;;;13.07;;
5333;SDS011;2689;50.954;7.116;2022-08-19T11:36:03;17.77;;;13.17;;
5333;SDS011;2689;50.954;7.116;2022-08-19T11:38:30;16.23;;;14.07;;
5333;SDS011;2689;50.954;7.116;2022-08-19T11:40:59;20.13;;;15.40;;
5333;SDS011;2689;50.954;7.116;2022-08-19T11:43:27;17.67;;;11.60;;
5333;SDS011;2689;50.954;7.116;2022-08-19T11:45:55;17.00;;;12.87;;
5333;SDS011;2689;50.954;7.116;2022-08-19T11:48:23;12.03;;;10.83;;
5333;SDS011;2689;50.954;7.116;2022-08-19T11:50:51;13.60;;;12.10;;
5333;SDS011;2689;50.954;7.116;2022-08-19T11:53:20;16.47;;;12.90;;
5333;SDS011;2689;50.954;7.116;2022-08-19T11:55:47;17.60;;;12.93;;
5333;SDS011;2689;50.954;7.116;2022-08-19T11:58:17;22.50;;;14.77;;
5333;SDS011;2689;50.954;7.116;2022-08-19T12:00:44;18.00;;;14.07;;
5333;SDS011;2689;50.954;7.116;2022-08-19T12:03:10;16.60;;;14.03;;
5333;SDS011;2689;50.954;7.116;2022-08-19T12:05:39;15.10;;;13.60;;
5333;SDS011;2689;50.954;7.116;2022-08-19T12:08:07;15.70;;;13.63;;
5333;SDS011;2689;50.954;7.116;2022-08-19T12:10:34;11.80;;;10.70;;
5333;SDS011;2689;50.954;7.116;2022-08-19T12:13:01;16.00;;;13.50;;
5333;SDS011;2689;50.954;7.116;2022-08-19T12:15:29;13.63;;;12.10;;
5333;SDS011;2689;50.954;7.116;2022-08-19T12:18:00;16.27;;;14.67;;
5333;SDS011;2689;50.954;7.116;2022-08-19T12:20:27;14.80;;;13.50;;
5333;SDS011;2689;50.954;7.116;2022-08-19T12:22:54;14.00;;;12.77;;
5333;SDS011;2689;50.954;7.116;2022-08-19T12:25:21;16.93;;;11.40;;
5333;SDS011;2689;50.954;7.116;2022-08-19T12:27:47;14.00;;;12.70;;
5333;SDS011;2689;50.954;7.116;2022-08-19T12:30:14;12.83;;;11.50;;
5333;SDS011;2689;50.954;7.116;2022-08-19T12:32:43;12.77;;;11.47;;
5333;SDS011;2689;50.954;7.116;2022-08-19T12:35:09;12.67;;;11.37;;
5333;SDS011;2689;50.954;7.116;2022-08-19T12:37:37;13.63;;;12.40;;
5333;SDS011;2689;50.954;7.116;2022-08-19T12:40:09;10.53;;;9.07;;
5333;SDS011;2689;50.954;7.116;2022-08-19T12:42:37;11.67;;;10.57;;
5333;SDS011;2689;50.954;7.116;2022-08-19T12:45:07;8.57;;;7.67;;
5333;SDS011;2689;50.954;7.116;2022-08-19T12:47:34;12.70;;;10.27;;
5333;SDS011;2689;50.954;7.116;2022-08-19T12:50:03;8.80;;;7.50;;
5333;SDS011;2689;50.954;7.116;2022-08-19T12:52:33;11.53;;;10.23;;
5333;SDS011;2689;50.954;7.116;2022-08-19T12:55:02;11.43;;;10.27;;
5333;SDS011;2689;50.954;7.116;2022-08-19T12:57:31;11.80;;;10.70;;
5333;SDS011;2689;50.954;7.116;2022-08-19T12:59:58;10.90;;;9.40;;
5333;SDS011;2689;50.954;7.116;2022-08-19T13:02:25;11.87;;;9.90;;
5333;SDS011;2689;50.954;7.116;2022-08-19T13:04:52;17.47;;;11.40;;
5333;SDS011;2689;50.954;7.116;2022-08-19T13:07:20;10.80;;;9.80;;
5333;SDS011;2689;50.954;7.116;2022-08-19T13:09:47;10.73;;;9.13;;
5333;SDS011;2689;50.954;7.116;2022-08-19T13:12:17;10.10;;;8.20;;
5333;SDS011;2689;50.954;7.116;2022-08-19T13:14:45;11.73;;;9.07;;
5333;SDS011;2689;50.954;7.116;2022-08-19T13:17:15;15.90;;;9.13;;
5333;SDS011;2689;50.954;7.116;2022-08-19T13:19:42;10.77;;;8.13;;
5333;SDS011;2689;50.954;7.116;2022-08-19T13:22:09;11.30;;;9.00;;
5333;SDS011;2689;50.954;7.116;2022-08-19T13:24:38;11.37;;;9.60;;
5333;SDS011;2689;50.954;7.116;2022-08-19T13:27:06;12.60;;;10.27;;
5333;SDS011;2689;50.954;7.116;2022-08-19T13:29:33;12.00;;;9.40;;
5333;SDS011;2689;50.954;7.116;2022-08-19T13:32:17;11.07;;;8.27;;
5333;SDS011;2689;50.954;7.116;2022-08-19T13:35:01;12.60;;;8.97;;
5333;SDS011;2689;50.954;7.116;2022-08-19T13:37:29;12.53;;;9.87;;
5333;SDS011;2689;50.954;7.116;2022-08-19T13:40:10;12.60;;;9.50;;
5333;SDS011;2689;50.954;7.116;2022-08-19T13:42:41;13.67;;;9.20;;
5333;SDS011;2689;50.954;7.116;2022-08-19T13:45:08;14.90;;;9.70;;
5333;SDS011;2689;50.954;7.116;2022-08-19T13:47:35;9.00;;;7.90;;
5333;SDS011;2689;50.954;7.116;2022-08-19T13:50:09;13.40;;;8.50;;
5333;SDS011;2689;50.954;7.116;2022-08-19T13:52:37;14.63;;;9.50;;
5333;SDS011;2689;50.954;7.116;2022-08-19T13:55:04;10.73;;;7.97;;
5333;SDS011;2689;50.954;7.116;2022-08-19T13:57:32;8.77;;;7.87;;
5333;SDS011;2689;50.954;7.116;2022-08-19T14:00:00;9.17;;;7.80;;
5333;SDS011;2689;50.954;7.116;2022-08-19T14:02:29;9.53;;;6.60;;
5333;SDS011;2689;50.954;7.116;2022-08-19T14:04:56;10.97;;;7.83;;
5333;SDS011;2689;50.954;7.116;2022-08-19T14:07:24;13.87;;;7.77;;
5333;SDS011;2689;50.954;7.116;2022-08-19T14:09:50;10.93;;;8.90;;
5333;SDS011;2689;50.954;7.116;2022-08-19T14:12:18;10.80;;;9.70;;
5333;SDS011;2689;50.954;7.116;2022-08-19T14:14:47;9.97;;;7.33;;
5333;SDS011;2689;50.954;7.116;2022-08-19T14:17:14;7.70;;;6.80;;
5333;SDS011;2689;50.954;7.116;2022-08-19T14:19:41;7.53;;;6.13;;
5333;SDS011;2689;50.954;7.116;2022-08-19T14:22:08;6.70;;;6.03;;
5333;SDS011;2689;50.954;7.116;2022-08-19T14:24:36;10.00;;;6.43;;
5333;SDS011;2689;50.954;7.116;2022-08-19T14:27:04;8.30;;;7.40;;
5333;SDS011;2689;50.954;7.116;2022-08-19T14:29:31;7.03;;;5.87;;
5333;SDS011;2689;50.954;7.116;2022-08-19T14:31:59;11.20;;;8.83;;
5333;SDS011;2689;50.954;7.116;2022-08-19T14:34:26;7.70;;;6.37;;
5333;SDS011;2689;50.954;7.116;2022-08-19T14:36:53;7.83;;;5.50;;
5333;SDS011;2689;50.954;7.116;2022-08-19T14:39:20;6.53;;;5.10;;
5333;SDS011;2689;50.954;7.116;2022-08-19T14:41:47;7.57;;;5.23;;
5333;SDS011;2689;50.954;7.116;2022-08-19T14:44:14;8.73;;;5.83;;
5333;SDS011;2689;50.954;7.116;2022-08-19T14:46:40;13.10;;;5.80;;
5333;SDS011;2689;50.954;7.116;2022-08-19T14:49:10;6.73;;;6.03;;
5333;SDS011;2689;50.954;7.116;2022-08-19T14:51:37;13.03;;;8.70;;
5333;SDS011;2689;50.954;7.116;2022-08-19T14:54:07;9.10;;;7.47;;
5333;SDS011;2689;50.954;7.116;2022-08-19T14:56:37;12.43;;;8.37;;
5333;SDS011;2689;50.954;7.116;2022-08-19T14:59:09;17.30;;;10.50;;
5333;SDS011;2689;50.954;7.116;2022-08-19T15:01:42;16.47;;;6.93;;